Time;durP1;ratioP1;P1;durP2;ratioP2;P2;SDS_P1;SDS_P2;PMS_P1;PMS_P2;Temp;Humidity;BMP_temperature;BMP_pressure;BME280_temperature;BME280_humidity;BME280_pressure;Samples;Min_cycle;Max_cycle;Signal;HPM_P1;HPM_P2
2020/12/17 00:00:36;;;;;;;10.70;3.95;;;9.90;99.90;;;9.47;98.26;101057.03;4170043;28;20029;-72
2020/12/17 00:02:37;;;;;;;16.30;4.18;;;9.90;99.90;;;9.41;97.62;101050.50;4169995;28;20057;-72
2020/12/17 00:04:39;;;;;;;14.95;3.55;;;10.00;99.90;;;9.61;96.65;101056.59;4168887;28;20033;-72
2020/12/17 00:06:40;;;;;;;17.60;3.75;;;10.10;99.90;;;9.53;97.12;101062.56;4169798;28;20070;-72
2020/12/17 00:08:40;;;;;;;12.80;3.63;;;10.10;99.90;;;9.42;97.39;101062.72;4168823;28;20029;-72
2020/12/17 00:10:41;;;;;;;14.55;3.83;;;10.00;99.90;;;9.41;98.10;101063.69;4169893;28;20155;-72
2020/12/17 00:12:46;;;;;;;13.85;3.13;;;10.00;99.90;;;9.43;97.17;101065.22;4168671;28;20032;-72
2020/12/17 00:14:47;;;;;;;11.52;3.97;;;9.90;99.90;;;9.31;97.37;101060.25;4170016;28;20536;-72
2020/12/17 00:16:48;;;;;;;10.57;2.80;;;9.90;99.90;;;9.34;97.08;101067.84;4169895;28;20030;-72
2020/12/17 00:18:48;;;;;;;12.90;2.95;;;9.80;99.90;;;9.24;97.15;101062.59;4168455;28;20556;-71
2020/12/17 00:20:49;;;;;;;10.20;2.83;;;9.80;99.90;;;9.18;97.41;101059.69;4168349;28;20032;-71
2020/12/17 00:22:50;;;;;;;14.07;2.83;;;9.70;99.90;;;9.01;97.50;101066.47;4169876;28;20036;-71
2020/12/17 00:24:51;;;;;;;6.10;2.63;;;9.60;99.90;;;8.82;98.50;101069.09;4169637;28;20090;-71
2020/12/17 00:26:52;;;;;;;7.95;2.75;;;9.50;99.90;;;8.86;98.71;101073.97;4169690;28;20539;-71
2020/12/17 00:28:54;;;;;;;11.07;2.55;;;9.40;99.90;;;8.79;98.41;101064.94;4169664;28;20029;-72
2020/12/17 00:30:54;;;;;;;9.43;2.55;;;9.40;99.90;;;8.89;97.87;101065.78;4168600;28;20454;-72
2020/12/17 00:32:55;;;;;;;11.18;2.30;;;9.30;99.90;;;8.90;98.08;101067.44;4169703;28;20029;-72
2020/12/17 00:34:56;;;;;;;8.02;2.03;;;9.30;99.90;;;9.03;97.73;101061.06;4168311;28;20026;-71
2020/12/17 00:36:57;;;;;;;9.30;2.33;;;9.30;99.90;;;9.01;97.79;101061.22;4169460;28;20037;-72
2020/12/17 00:38:58;;;;;;;13.27;3.00;;;9.40;99.90;;;8.96;97.74;101059.97;4169633;28;20037;-71
2020/12/17 00:40:59;;;;;;;11.18;2.53;;;9.40;99.90;;;8.93;97.98;101061.06;4168376;28;20411;-71
2020/12/17 00:42:59;;;;;;;8.38;2.00;;;9.40;99.90;;;8.97;98.32;101069.50;4168174;28;20037;-71
2020/12/17 00:45:00;;;;;;;12.05;2.40;;;9.40;99.90;;;9.02;98.27;101072.59;4168293;28;20040;-72
2020/12/17 00:47:01;;;;;;;7.07;2.25;;;9.40;99.90;;;9.07;97.96;101080.88;4168724;28;20046;-71
2020/12/17 00:49:02;;;;;;;9.05;2.63;;;9.40;99.90;;;9.19;95.69;101087.69;4169375;28;20025;-71
2020/12/17 00:51:03;;;;;;;7.47;2.65;;;9.50;99.90;;;9.16;95.54;101087.94;4169127;28;20025;-72
2020/12/17 00:53:04;;;;;;;4.55;1.70;;;9.50;99.90;;;9.18;94.82;101081.56;4169453;28;20018;-71
2020/12/17 00:55:06;;;;;;;6.45;1.80;;;9.50;99.90;;;9.03;95.61;101088.22;4169479;28;20026;-72
2020/12/17 00:57:07;;;;;;;4.63;1.70;;;9.50;99.90;;;9.08;96.42;101100.97;4169354;28;20036;-72
2020/12/17 00:59:08;;;;;;;5.28;1.70;;;9.50;99.90;;;8.96;96.28;101096.81;4151554;28;20033;-72
2020/12/17 01:01:09;;;;;;;11.63;2.58;;;9.30;99.90;;;8.88;97.43;101090.44;4151669;28;20037;-72
2020/12/17 01:03:11;;;;;;;5.32;1.83;;;9.30;99.90;;;8.98;95.45;101105.38;4168130;28;20021;-72
2020/12/17 01:05:12;;;;;;;6.75;1.90;;;9.30;99.90;;;8.87;96.66;101104.53;4169269;28;20476;-72
2020/12/17 01:07:13;;;;;;;7.60;2.08;;;9.30;99.90;;;8.85;97.06;101108.28;4168050;28;20029;-72
2020/12/17 01:09:13;;;;;;;10.80;2.28;;;9.30;99.90;;;8.76;97.00;101103.81;4167910;28;20126;-72
2020/12/17 01:11:14;;;;;;;5.68;1.77;;;9.30;99.90;;;8.71;97.42;101122.66;4169190;28;20489;-72
2020/12/17 01:13:15;;;;;;;5.72;2.63;;;9.20;99.90;;;8.71;97.55;101119.19;4169172;28;20029;-72
2020/12/17 01:15:16;;;;;;;6.95;1.85;;;9.20;99.90;;;8.52;97.78;101119.13;4168116;28;20029;-72
2020/12/17 01:17:17;;;;;;;5.03;1.50;;;9.10;99.90;;;8.57;98.51;101120.38;4169032;28;20037;-72
2020/12/17 01:19:18;;;;;;;8.73;2.10;;;9.00;99.90;;;8.72;97.79;101126.94;4169148;28;20057;-72
2020/12/17 01:21:19;;;;;;;9.85;1.77;;;9.00;99.90;;;8.65;97.67;101125.81;4168806;28;20112;-72
2020/12/17 01:23:19;;;;;;;5.78;1.67;;;9.00;99.90;;;8.66;97.51;101122.22;4167665;28;20051;-72
2020/12/17 01:25:21;;;;;;;6.43;2.03;;;9.00;99.90;;;8.52;98.06;101117.31;4168990;28;20038;-72
2020/12/17 01:27:23;;;;;;;7.07;1.80;;;9.00;99.90;;;8.54;97.84;101109.31;4169107;28;20025;-72
2020/12/17 01:29:25;;;;;;;8.25;2.55;;;8.90;99.90;;;8.53;97.95;101118.16;4169000;28;20037;-72
2020/12/17 01:31:26;;;;;;;6.97;2.03;;;8.90;99.90;;;8.51;98.36;101112.22;4167658;28;20095;-72
2020/12/17 01:33:27;;;;;;;6.47;1.85;;;8.90;99.90;;;8.57;98.06;101111.69;4151150;28;20034;-72
2020/12/17 01:35:28;;;;;;;9.93;2.10;;;8.90;99.90;;;8.60;97.71;101128.00;4168643;28;20025;-72
2020/12/17 01:37:29;;;;;;;7.43;3.08;;;8.90;99.90;;;8.52;98.27;101129.63;4167672;28;20107;-72
2020/12/17 01:39:30;;;;;;;8.90;2.00;;;8.90;99.90;;;8.46;97.96;101125.75;4168878;28;20168;-72
2020/12/17 01:41:31;;;;;;;13.35;3.55;;;8.90;99.90;;;8.49;97.13;101136.00;4168666;28;20037;-72
2020/12/17 01:43:37;;;;;;;5.30;2.13;;;8.80;99.90;;;8.44;96.79;101124.22;4168892;28;20397;-72
2020/12/17 01:45:38;;;;;;;7.45;2.55;;;8.80;99.90;;;8.34;97.52;101135.53;4168681;28;20046;-72
2020/12/17 01:47:39;;;;;;;8.40;2.50;;;8.70;99.90;;;8.37;97.56;101126.53;4168717;28;20443;-72
2020/12/17 01:49:40;;;;;;;9.25;2.03;;;8.70;99.90;;;8.41;96.58;101141.09;4168739;28;20025;-72
2020/12/17 01:51:41;;;;;;;7.05;2.08;;;8.70;99.90;;;8.34;96.30;101134.69;4168508;28;20100;-72
2020/12/17 01:53:42;;;;;;;10.63;2.72;;;8.70;99.90;;;8.33;96.42;101141.75;4168717;28;20028;-72
2020/12/17 01:55:43;;;;;;;9.25;2.70;;;8.60;99.90;;;8.31;96.88;101148.09;4200535;28;20056;-72
2020/12/17 01:57:46;;;;;;;14.52;3.10;;;8.70;99.90;;;8.33;97.32;101156.69;4199770;28;20031;-72
2020/12/17 01:59:49;;;;;;;15.10;4.15;;;8.60;99.90;;;8.31;96.86;101153.34;4200225;28;20039;-72
2020/12/17 02:01:53;;;;;;;6.68;3.03;;;8.60;99.90;;;8.33;97.09;101167.22;4200478;28;20029;-72
2020/12/17 02:03:54;;;;;;;9.00;3.63;;;8.60;99.90;;;8.36;95.33;101166.13;4168380;28;20021;-72
2020/12/17 02:05:57;;;;;;;10.10;3.97;;;8.60;99.90;;;8.26;96.04;101164.25;4167227;28;20026;-72
2020/12/17 02:08:00;;;;;;;11.18;3.83;;;8.60;99.90;;;8.30;96.84;101167.47;4167271;28;20516;-72
2020/12/17 02:10:02;;;;;;;14.63;3.28;;;8.60;99.90;;;8.24;96.38;101157.47;4168517;28;20032;-72
2020/12/17 02:12:04;;;;;;;11.25;3.20;;;8.60;99.90;;;8.25;97.49;101169.63;4167131;28;20061;-72
2020/12/17 02:14:05;;;;;;;12.27;3.35;;;8.60;99.90;;;8.28;98.35;101164.13;4167400;28;20033;-72
2020/12/17 02:16:07;;;;;;;11.75;3.65;;;8.60;99.90;;;8.34;97.62;101168.88;4167363;28;20503;-72
2020/12/17 02:18:08;;;;;;;11.50;3.20;;;8.70;99.90;;;8.32;97.68;101171.63;4167137;28;20057;-72
2020/12/17 02:20:11;;;;;;;8.80;2.50;;;8.70;99.90;;;8.30;98.03;101170.09;4166801;28;20029;-72
2020/12/17 02:22:11;;;;;;;7.47;2.50;;;8.70;99.90;;;8.32;97.66;101178.69;4167305;28;20485;-72
2020/12/17 02:24:13;;;;;;;10.27;3.15;;;8.70;99.90;;;8.39;97.05;101179.00;4167004;28;20053;-72
2020/12/17 02:26:15;;;;;;;6.93;2.63;;;8.80;99.90;;;8.44;95.87;101180.25;4168408;28;20033;-72
2020/12/17 02:28:16;;;;;;;11.48;3.58;;;8.80;99.90;;;8.39;96.06;101177.22;4167177;28;20021;-72
2020/12/17 02:30:17;;;;;;;12.85;4.57;;;8.80;99.90;;;8.42;96.53;101181.38;4167163;28;20030;-72
2020/12/17 02:32:18;;;;;;;10.82;3.03;;;8.90;99.90;;;8.56;96.24;101189.72;4168402;28;20084;-72
2020/12/17 02:34:19;;;;;;;11.48;2.97;;;9.00;99.90;;;8.64;95.79;101205.66;4167064;28;20030;-71
2020/12/17 02:36:20;;;;;;;11.15;2.80;;;9.00;99.90;;;8.75;95.76;101210.03;4166877;28;20076;-71
2020/12/17 02:38:23;;;;;;;12.30;2.97;;;9.20;99.90;;;8.80;96.20;101218.34;4167093;28;20025;-71
2020/12/17 02:40:24;;;;;;;7.38;2.45;;;9.20;99.90;;;8.76;96.89;101216.94;4167177;28;20018;-72
2020/12/17 02:42:24;;;;;;;9.70;2.35;;;9.20;99.90;;;8.77;97.17;101214.19;4168351;28;20551;-71
2020/12/17 02:44:25;;;;;;;14.88;2.92;;;9.30;99.90;;;8.75;96.84;101210.03;4167055;28;20424;-72
2020/12/17 02:46:26;;;;;;;9.10;2.50;;;9.30;99.90;;;8.65;97.09;101215.25;4168127;28;20084;-72
2020/12/17 02:48:27;;;;;;;15.18;3.97;;;9.30;99.90;;;8.68;97.83;101209.72;4167003;28;20029;-72
2020/12/17 02:50:28;;;;;;;18.73;5.03;;;9.30;99.90;;;8.69;97.37;101221.06;4166952;28;20021;-72
2020/12/17 02:52:29;;;;;;;18.35;4.78;;;9.30;99.90;;;8.69;97.58;101214.00;4167060;28;20032;-72
2020/12/17 02:54:30;;;;;;;12.43;3.45;;;9.30;99.90;;;8.72;97.25;101208.47;4168088;28;20029;-72
2020/12/17 02:56:31;;;;;;;14.70;3.88;;;9.30;99.90;;;8.76;97.29;101216.94;4168205;28;20116;-72
2020/12/17 02:58:32;;;;;;;11.60;3.40;;;9.30;99.90;;;8.81;98.00;101215.56;4167095;28;20431;-71
2020/12/17 03:00:34;;;;;;;15.10;2.85;;;9.30;99.90;;;8.95;96.95;101214.38;4168101;28;20041;-72
2020/12/17 03:02:35;;;;;;;10.38;2.67;;;9.40;99.90;;;9.12;96.62;101223.41;4166815;28;20025;-71
2020/12/17 03:04:36;;;;;;;14.30;2.33;;;9.40;99.90;;;8.94;97.40;101209.22;4168186;28;20444;-72
2020/12/17 03:06:36;;;;;;;8.48;2.30;;;9.50;99.90;;;9.02;97.63;101230.47;4166524;28;20030;-72
2020/12/17 03:08:37;;;;;;;6.18;2.45;;;9.50;99.90;;;9.04;98.02;101231.16;4167975;28;20033;-72
2020/12/17 03:10:38;;;;;;;8.60;3.05;;;9.60;99.90;;;9.17;97.55;101227.28;4169258;28;20091;-72
2020/12/17 03:12:43;;;;;;;13.77;2.83;;;9.60;99.90;;;9.06;97.12;101229.22;4169737;28;20026;-72
2020/12/17 03:14:44;;;;;;;10.30;2.10;;;9.70;99.90;;;9.04;97.70;101215.38;4171065;28;20025;-72
2020/12/17 03:16:45;;;;;;;12.07;3.60;;;9.60;99.90;;;9.03;97.84;101230.31;4171051;28;20515;-72
2020/12/17 03:18:47;;;;;;;8.82;2.95;;;9.70;99.90;;;9.02;98.33;101239.16;4170873;28;20045;-72
2020/12/17 03:20:48;;;;;;;13.32;2.83;;;9.70;99.90;;;8.92;98.87;101229.59;4169529;28;20021;-72
2020/12/17 03:22:49;;;;;;;14.80;3.15;;;9.70;99.90;;;8.95;99.38;101232.78;4169815;28;20036;-72
2020/12/17 03:24:49;;;;;;;15.07;4.70;;;9.70;99.90;;;8.86;99.92;101228.31;4170733;28;20030;-72
2020/12/17 03:26:50;;;;;;;13.55;4.55;;;9.60;99.90;;;8.89;99.96;101228.91;4170765;28;20029;-72
2020/12/17 03:28:51;;;;;;;13.38;4.43;;;9.60;99.90;;;8.99;99.33;101221.00;4169806;28;20024;-72
2020/12/17 03:30:52;;;;;;;10.70;4.43;;;9.60;99.90;;;9.06;99.02;101234.47;4169630;28;20021;-72
2020/12/17 03:32:53;;;;;;;8.55;2.47;;;9.60;99.90;;;9.14;98.33;101250.44;4169577;28;20079;-72
2020/12/17 03:34:54;;;;;;;12.50;2.20;;;9.70;99.90;;;9.25;97.15;101256.44;4169329;28;20029;-72
2020/12/17 03:36:55;;;;;;;10.25;1.80;;;9.70;99.90;;;9.16;98.12;101248.50;4169356;28;20029;-72
2020/12/17 03:38:56;;;;;;;9.57;2.78;;;9.70;99.90;;;9.06;98.06;101251.09;4170632;28;20029;-72
2020/12/17 03:40:56;;;;;;;14.55;2.78;;;9.60;99.90;;;9.07;98.02;101255.41;4169393;28;20025;-72
2020/12/17 03:42:57;;;;;;;9.90;2.47;;;9.50;99.90;;;9.02;98.06;101256.78;4170585;28;20045;-72
2020/12/17 03:44:58;;;;;;;10.30;2.67;;;9.50;99.90;;;9.07;98.55;101251.94;4169324;28;20030;-72
2020/12/17 03:46:59;;;;;;;8.50;2.75;;;9.50;99.90;;;9.10;98.39;101255.13;4169209;28;20501;-72
2020/12/17 03:49:00;;;;;;;13.18;2.95;;;9.50;99.90;;;9.04;98.02;101246.94;4170583;28;20052;-72
2020/12/17 03:51:01;;;;;;;11.45;2.08;;;9.50;99.90;;;9.05;98.44;101256.50;4170168;28;20025;-72
2020/12/17 03:53:02;;;;;;;8.95;2.05;;;9.50;99.90;;;9.07;97.61;101247.50;4170290;28;20017;-72
2020/12/17 03:55:04;;;;;;;12.45;2.17;;;9.40;99.90;;;8.78;97.84;101242.13;4170467;28;20083;-72
2020/12/17 03:57:05;;;;;;;7.78;2.05;;;9.40;99.90;;;8.71;98.67;101245.44;4170442;28;20497;-71
2020/12/17 03:59:06;;;;;;;8.82;2.08;;;9.30;99.90;;;8.79;98.55;101251.69;4170375;28;20029;-72
2020/12/17 04:01:07;;;;;;;14.57;2.55;;;9.20;99.90;;;8.87;98.73;101258.91;4170409;28;20030;-72
2020/12/17 04:03:08;;;;;;;5.32;2.10;;;9.20;99.90;;;8.88;98.56;101261.44;4169038;28;20026;-72
2020/12/17 04:05:09;;;;;;;8.27;1.75;;;9.20;99.90;;;8.78;99.09;101251.84;4169912;28;20021;-72
2020/12/17 04:07:13;;;;;;;5.80;1.85;;;9.20;99.90;;;8.78;99.02;101257.91;4168964;28;20060;-72
2020/12/17 04:09:13;;;;;;;9.00;2.22;;;9.20;99.90;;;8.71;99.21;101250.69;4170431;28;20021;-72
2020/12/17 04:11:14;;;;;;;10.00;2.10;;;9.10;99.90;;;8.69;99.89;101258.69;4169057;28;20060;-72
2020/12/17 04:13:15;;;;;;;8.77;1.85;;;9.10;99.90;;;8.77;99.73;101273.84;4169108;28;20025;-72
2020/12/17 04:15:16;;;;;;;12.27;3.28;;;9.10;99.90;;;8.73;99.91;101267.16;4170143;28;20029;-72
2020/12/17 04:17:17;;;;;;;7.82;2.20;;;9.10;99.90;;;8.68;99.77;101278.09;4168897;28;20025;-72
2020/12/17 04:19:18;;;;;;;9.30;1.95;;;9.00;99.90;;;8.60;99.95;101270.00;4169030;28;20551;-72
2020/12/17 04:21:19;;;;;;;8.52;2.10;;;9.00;99.90;;;8.63;99.19;101272.38;4167756;28;20037;-72
2020/12/17 04:23:21;;;;;;;8.50;2.03;;;9.00;99.90;;;8.63;99.25;101272.38;4168646;28;20041;-72
2020/12/17 04:25:22;;;;;;;11.55;2.85;;;9.00;99.90;;;8.64;99.77;101275.84;4168717;28;20563;-72
2020/12/17 04:27:23;;;;;;;15.95;4.43;;;9.00;99.90;;;8.67;99.04;101272.94;4170125;28;20034;-72
2020/12/17 04:29:24;;;;;;;7.70;2.33;;;9.00;99.90;;;8.75;99.00;101283.66;4168696;28;20021;-72
2020/12/17 04:31:24;;;;;;;6.13;1.98;;;9.00;99.90;;;8.69;98.80;101294.72;4168786;28;20132;-72
2020/12/17 04:33:25;;;;;;;12.88;2.28;;;9.00;99.90;;;8.61;98.77;101290.09;4168519;28;20044;-72
2020/12/17 04:35:26;;;;;;;7.75;1.88;;;8.90;99.90;;;8.48;99.18;101288.63;4169645;28;20034;-72
2020/12/17 04:37:27;;;;;;;3.47;1.92;;;8.90;99.90;;;8.45;99.78;101296.78;4170062;28;20021;-72
2020/12/17 04:39:28;;;;;;;8.45;2.15;;;8.80;99.90;;;8.39;100.00;101295.50;4169946;28;20052;-72
2020/12/17 04:41:32;;;;;;;6.90;2.15;;;8.80;99.90;;;8.49;100.00;101293.75;4169684;28;20029;-72
2020/12/17 04:43:33;;;;;;;5.82;1.83;;;8.80;99.90;;;8.46;98.95;101295.78;4169839;28;20115;-72
2020/12/17 04:45:34;;;;;;;6.95;2.10;;;8.80;99.90;;;8.48;99.10;101313.13;4168350;28;20044;-72
2020/12/17 04:47:39;;;;;;;7.47;2.08;;;8.80;99.90;;;8.39;99.25;101308.66;4168569;28;20029;-72
2020/12/17 04:49:49;;;;;;;8.25;2.15;;;8.80;99.90;;;8.45;99.16;101308.13;4168402;28;20025;-72
2020/12/17 04:51:56;;;;;;;4.47;2.03;;;8.80;99.90;;;8.46;98.67;101309.78;4168375;28;20068;-72
2020/12/17 04:54:02;;;;;;;7.95;2.05;;;8.80;99.90;;;8.41;99.12;101311.97;4168396;28;20029;-72
2020/12/17 04:56:03;;;;;;;4.78;2.05;;;8.80;99.90;;;8.39;98.98;101320.94;4201138;28;20056;-72
2020/12/17 04:58:10;;;;;;;13.07;2.97;;;8.80;99.90;;;8.37;98.95;101309.72;4201517;28;20021;-72
2020/12/17 05:00:14;;;;;;;4.38;1.40;;;8.80;99.90;;;8.39;99.02;101313.06;4169500;28;20029;-72
2020/12/17 05:02:18;;;;;;;9.77;1.85;;;8.70;99.90;;;8.47;98.84;101327.22;4169186;28;20033;-72
2020/12/17 05:04:21;;;;;;;7.70;2.03;;;8.80;99.90;;;8.40;99.10;101326.06;4169179;28;20120;-72
2020/12/17 05:06:23;;;;;;;6.50;1.60;;;8.70;99.90;;;8.48;98.70;101328.91;4167974;28;20021;-72
2020/12/17 05:08:24;;;;;;;4.10;2.20;;;8.80;99.90;;;8.44;98.47;101329.28;4169405;28;20116;-72
2020/12/17 05:10:25;;;;;;;5.60;1.88;;;8.70;99.90;;;8.36;99.30;101334.34;4168133;28;20028;-72
2020/12/17 05:12:26;;;;;;;10.52;2.22;;;8.70;99.90;;;8.34;99.48;101332.66;4169181;28;20034;-72
2020/12/17 05:14:28;;;;;;;6.25;1.70;;;8.70;99.90;;;8.35;99.56;101336.13;4169310;28;20029;-72
2020/12/17 05:16:29;;;;;;;7.13;1.80;;;8.70;99.90;;;8.37;98.64;101330.72;4151729;28;20436;-72
2020/12/17 05:18:31;;;;;;;7.32;1.85;;;8.70;99.90;;;8.35;99.00;101341.41;4169166;28;20017;-72
2020/12/17 05:20:32;;;;;;;6.97;1.75;;;8.70;99.90;;;8.33;98.80;101345.94;4167720;28;20034;-72
2020/12/17 05:22:33;;;;;;;7.25;2.05;;;8.60;99.90;;;8.25;99.49;101343.06;4169156;28;20362;-72
2020/12/17 05:24:34;;;;;;;11.27;1.92;;;8.60;99.90;;;8.20;99.84;101345.25;4167822;28;20032;-72
2020/12/17 05:26:36;;;;;;;6.53;1.92;;;8.60;99.90;;;8.29;99.61;101339.28;4169047;28;20029;-72
2020/12/17 05:28:39;;;;;;;8.50;2.70;;;8.60;99.90;;;8.38;100.00;101358.69;4167877;28;20029;-72
2020/12/17 05:30:40;;;;;;;9.70;1.90;;;8.60;99.90;;;8.48;98.27;101357.84;4167858;28;20125;-72
2020/12/17 05:32:41;;;;;;;8.52;1.70;;;8.70;99.90;;;8.50;99.23;101363.78;4167675;28;20026;-72
2020/12/17 05:34:43;;;;;;;8.55;1.85;;;8.70;99.90;;;8.47;98.88;101360.56;4167647;28;20423;-72
2020/12/17 05:36:47;;;;;;;9.43;1.60;;;8.70;99.90;;;8.44;98.97;101364.28;4167372;28;20026;-72
2020/12/17 05:38:48;;;;;;;7.82;2.33;;;8.70;99.90;;;8.40;99.65;101367.28;4167730;28;20132;-72
2020/12/17 05:40:49;;;;;;;7.18;2.17;;;8.70;99.90;;;8.39;99.68;101369.09;4167665;28;20029;-72
2020/12/17 05:42:50;;;;;;;12.25;2.65;;;8.70;99.90;;;8.35;99.79;101370.31;4168725;28;20056;-72
2020/12/17 05:44:51;;;;;;;4.43;1.60;;;8.70;99.90;;;8.31;99.86;101374.13;4168844;28;20120;-72
2020/12/17 05:46:53;;;;;;;6.95;2.75;;;8.70;99.90;;;8.22;99.99;101373.06;4168485;28;20053;-72
2020/12/17 05:49:29;;;;;;;7.95;1.88;;;8.60;99.90;;;8.33;99.92;101377.50;4167445;28;20108;-72
2020/12/17 05:51:29;;;;;;;4.32;1.75;;;8.60;99.90;;;8.21;99.62;101373.22;4168507;28;20033;-72
2020/12/17 05:53:39;;;;;;;6.95;2.05;;;8.50;99.90;;;8.20;99.62;101363.66;4167498;28;20485;-72
2020/12/17 05:55:41;;;;;;;8.00;2.15;;;8.50;99.90;;;8.27;98.75;101377.97;4168726;28;20029;-72
2020/12/17 05:57:52;;;;;;;8.02;1.75;;;8.50;99.90;;;8.18;98.21;101373.47;4150975;28;20029;-72
2020/12/17 06:00:02;;;;;;;8.18;2.05;;;8.50;99.90;;;8.09;98.59;101377.69;4168664;28;20064;-72
2020/12/17 06:02:26;;;;;;;11.45;2.17;;;8.50;99.90;;;8.13;99.66;101386.13;4167137;28;20022;-72
2020/12/17 06:04:27;;;;;;;10.27;2.15;;;8.50;99.90;;;8.12;99.57;101389.72;4154788;28;20035;-72
2020/12/17 06:06:34;;;;;;;7.93;1.70;;;8.50;99.90;;;8.15;99.98;101394.72;4168295;28;20053;-72
2020/12/17 06:08:40;;;;;;;10.65;2.17;;;8.50;99.90;;;8.22;100.00;101395.88;4167444;28;20026;-72
2020/12/17 06:10:48;;;;;;;8.32;2.00;;;8.50;99.90;;;8.29;100.00;101403.19;4167282;28;20053;-72
2020/12/17 06:12:52;;;;;;;10.75;2.17;;;8.60;99.90;;;8.39;100.00;101405.91;4167334;28;20043;-72
2020/12/17 06:14:54;;;;;;;8.38;2.00;;;8.60;99.90;;;8.44;99.07;101408.16;4167385;28;20061;-72
2020/12/17 06:16:58;;;;;;;6.13;2.08;;;8.60;99.90;;;8.45;98.95;101412.44;4167281;28;20056;-72
2020/12/17 06:19:01;;;;;;;7.55;2.78;;;8.60;99.90;;;8.37;98.91;101415.69;4167213;28;20117;-71
2020/12/17 06:21:04;;;;;;;6.43;2.28;;;8.60;99.90;;;8.46;98.39;101414.09;4166807;28;20094;-72
2020/12/17 06:23:09;;;;;;;5.90;1.77;;;8.70;99.90;;;8.42;99.33;101418.81;4167251;28;20026;-72
2020/12/17 06:25:13;;;;;;;7.75;2.80;;;8.70;99.90;;;8.46;99.39;101424.63;4167029;28;20044;-72
2020/12/17 06:27:20;;;;;;;7.78;3.63;;;8.70;99.90;;;8.44;99.02;101422.13;4168530;28;20022;-72
2020/12/17 06:29:22;;;;;;;8.82;3.92;;;8.70;99.90;;;8.33;99.68;101425.63;4167193;28;20026;-72
2020/12/17 06:31:27;;;;;;;23.20;9.38;;;8.70;99.90;;;8.41;99.72;101425.00;4168274;28;20032;-72
2020/12/17 06:33:27;;;;;;;;;;;8.60;99.90;;;8.43;99.47;101433.59;4167326;28;20028;-72
2020/12/17 06:35:29;;;;;;;12.98;6.05;;;8.70;99.90;;;8.42;99.15;101433.75;4168216;28;19913;-72
2020/12/17 06:37:30;;;;;;;11.45;4.93;;;8.70;99.90;;;8.41;98.71;101430.28;4168290;28;20497;-72
2020/12/17 06:39:32;;;;;;;10.73;4.40;;;8.70;99.90;;;8.41;99.16;101430.28;4167015;28;20057;-72
2020/12/17 06:41:33;;;;;;;14.40;4.43;;;8.70;99.90;;;8.44;99.37;101434.44;4166843;28;20018;-72
2020/12/17 06:43:36;;;;;;;13.73;4.20;;;8.70;99.90;;;8.31;99.45;101439.84;4167071;28;20029;-72
2020/12/17 06:45:38;;;;;;;10.50;3.10;;;8.60;99.90;;;8.25;100.00;101435.91;4170709;28;20033;-72
2020/12/17 06:47:39;;;;;;;9.48;4.28;;;8.60;99.90;;;8.16;100.00;101430.53;4171392;28;20021;-71
2020/12/17 06:49:42;;;;;;;9.23;5.10;;;8.60;99.90;;;8.09;100.00;101437.28;4171310;28;20036;-71
2020/12/17 06:51:44;;;;;;;13.25;4.50;;;8.50;99.90;;;8.13;100.00;101430.78;4171243;28;20021;-71
2020/12/17 06:53:45;;;;;;;14.75;5.05;;;8.50;99.90;;;8.16;100.00;101443.69;4171483;28;20025;-72
2020/12/17 06:55:49;;;;;;;11.75;5.03;;;8.50;99.90;;;8.19;100.00;101446.06;4203430;28;20027;-72
2020/12/17 06:57:51;;;;;;;11.90;3.22;;;8.50;99.90;;;8.18;100.00;101436.53;4202840;28;20032;-72
2020/12/17 07:00:12;;;;;;;10.98;4.70;;;8.60;99.90;;;8.23;100.00;101443.09;4171402;28;20036;-72
2020/12/17 07:02:20;;;;;;;11.38;4.53;;;8.50;99.90;;;8.26;100.00;101444.63;4171321;28;20029;-72
2020/12/17 07:04:48;;;;;;;13.40;4.18;;;8.50;99.90;;;8.17;100.00;101434.84;4170021;28;20040;-72
2020/12/17 07:07:15;;;;;;;12.73;5.15;;;8.50;99.90;;;8.26;100.00;101439.38;4168421;28;20107;-72
2020/12/17 07:09:30;;;;;;;12.88;4.53;;;8.50;99.90;;;8.23;100.00;101445.72;4171273;28;20053;-72
2020/12/17 07:11:45;;;;;;;13.43;3.97;;;8.60;99.90;;;8.23;99.87;101452.75;4170030;28;20034;-73
2020/12/17 07:13:47;;;;;;;6.68;2.80;;;8.50;99.90;;;8.17;98.82;101453.25;4166213;28;20030;-72
2020/12/17 07:15:48;;;;;;;8.73;3.65;;;8.50;99.90;;;8.16;98.10;101455.03;4169630;28;20033;-73
2020/12/17 07:17:49;;;;;;;9.30;3.00;;;8.50;99.90;;;8.14;98.93;101466.63;4169585;28;20397;-73
2020/12/17 07:19:50;;;;;;;11.20;2.95;;;8.40;99.90;;;8.18;98.71;101468.06;4169563;28;20104;-73
2020/12/17 07:22:17;;;;;;;7.05;3.22;;;8.40;99.90;;;8.12;98.83;101463.31;4169818;28;20033;-72
2020/12/17 07:24:26;;;;;;;10.32;2.72;;;8.40;99.90;;;8.18;99.33;101465.44;4169773;28;20022;-73
2020/12/17 07:26:27;;;;;;;8.60;2.88;;;8.40;99.90;;;8.12;99.52;101468.56;4171041;28;20026;-72
2020/12/17 07:28:28;;;;;;;8.48;2.97;;;8.40;99.90;;;8.05;99.12;101467.38;4169661;28;20037;-73
2020/12/17 07:30:29;;;;;;;7.63;3.20;;;8.40;99.90;;;8.06;98.89;101475.13;4170993;28;20083;-72
2020/12/17 07:32:45;;;;;;;8.88;2.55;;;8.40;99.90;;;8.00;99.40;101477.41;4169461;28;20025;-74
2020/12/17 07:34:46;;;;;;;7.90;3.20;;;8.30;99.90;;;7.87;99.18;101485.41;4168640;28;20034;-73
2020/12/17 07:36:48;;;;;;;5.75;2.67;;;8.30;99.90;;;7.83;99.64;101486.59;4169093;28;20056;-73
2020/12/17 07:38:49;;;;;;;7.80;2.90;;;8.30;99.90;;;7.72;99.66;101487.47;4169383;28;20026;-72
2020/12/17 07:40:53;;;;;;;9.88;3.15;;;8.20;99.90;;;7.77;99.45;101500.22;4169066;28;20025;-74
2020/12/17 07:43:14;;;;;;;5.70;2.78;;;8.10;99.90;;;7.75;98.76;101502.13;4169013;28;20029;-71
2020/12/17 07:45:16;;;;;;;5.97;3.58;;;8.10;99.90;;;7.67;99.01;101499.28;4170098;28;20116;-71
2020/12/17 07:47:21;;;;;;;16.08;5.75;;;8.10;99.90;;;7.68;97.57;101503.56;4152355;28;20046;-72
2020/12/17 07:49:28;;;;;;;11.25;5.70;;;8.00;99.90;;;7.64;98.28;101510.84;4168964;28;20029;-73
2020/12/17 07:51:31;;;;;;;6.95;3.53;;;8.00;99.90;;;7.66;97.56;101505.47;4152616;28;20026;-73
2020/12/17 07:53:32;;;;;;;9.32;3.65;;;7.90;99.90;;;7.59;96.63;101518.22;4170231;28;20040;-74
2020/12/17 07:55:35;;;;;;;8.65;3.72;;;7.90;99.90;;;7.52;96.78;101517.03;4200959;28;20033;-74
2020/12/17 07:57:36;;;;;;;9.93;5.68;;;7.90;99.90;;;7.48;97.12;101514.75;4201402;28;20029;-73
2020/12/17 07:59:37;;;;;;;7.45;4.30;;;7.90;99.90;;;7.49;97.46;101522.53;4170235;28;20055;-73
2020/12/17 08:01:38;;;;;;;10.02;5.72;;;7.80;99.90;;;7.52;96.87;101530.19;4168374;28;20079;-72
2020/12/17 08:03:52;;;;;;;13.30;5.95;;;7.90;99.90;;;7.52;97.41;101532.78;4167169;28;20025;-71
2020/12/17 08:06:07;;;;;;;12.40;5.95;;;7.90;99.90;;;7.51;96.87;101528.50;4167890;28;20034;-72
2020/12/17 08:08:13;;;;;;;;;;;7.80;99.90;;;7.42;97.24;101534.44;4170509;28;20036;-73
2020/12/17 08:10:16;;;;;;;11.30;5.47;;;7.80;99.90;;;7.44;97.86;101532.53;4168508;28;19909;-73
2020/12/17 08:12:17;;;;;;;11.00;6.53;;;7.80;99.90;;;7.44;97.92;101534.31;4168383;28;20032;-73
2020/12/17 08:14:24;;;;;;;10.65;6.13;;;7.80;99.90;;;7.44;97.88;101539.56;4168833;28;20029;-73
2020/12/17 08:16:25;;;;;;;11.10;6.25;;;7.80;99.90;;;7.46;97.42;101549.00;4168975;28;20025;-72
2020/12/17 08:18:29;;;;;;;10.25;6.03;;;7.80;99.90;;;7.44;97.57;101550.06;4168959;28;20104;-73
2020/12/17 08:20:31;;;;;;;7.32;5.28;;;7.80;99.90;;;7.45;97.18;101549.97;4152386;28;20021;-72
2020/12/17 08:22:34;;;;;;;8.98;6.78;;;7.80;99.90;;;7.40;97.40;101554.72;4168913;28;20049;-73
2020/12/17 08:24:35;;;;;;;10.35;4.47;;;7.80;99.90;;;7.32;97.42;101559.69;4168823;28;20060;-72
2020/12/17 08:26:37;;;;;;;9.32;4.25;;;7.80;99.90;;;7.34;97.89;101562.22;4168783;28;20026;-72
2020/12/17 08:28:42;;;;;;;7.57;4.55;;;7.70;99.90;;;7.43;97.19;101569.41;4169950;28;20547;-72
2020/12/17 08:30:43;;;;;;;6.15;4.03;;;7.70;99.90;;;7.57;95.27;101556.91;4152315;28;20032;-72
2020/12/17 08:32:52;;;;;;;8.00;4.13;;;7.80;99.90;;;7.57;95.15;101563.94;4152121;28;20589;-72
2020/12/17 08:34:55;;;;;;;5.40;3.90;;;7.80;99.90;;;7.59;95.45;101565.50;4168159;28;20025;-72
2020/12/17 08:36:56;;;;;;;5.85;3.83;;;7.90;99.90;;;7.53;95.63;101563.31;4168663;28;20093;-72
2020/12/17 08:39:09;;;;;;;7.63;3.50;;;7.90;99.90;;;7.62;94.92;101574.91;4168699;28;20083;-72